• Join FlightAware (Why Join?)
  • Login
  • US Flag 
06:54AM EST


 

Airport Tracker/Info


-or-


 

Live Flight TrackerFlight Track Log ✈ ASQ6092 ✈ 30-Apr-2013 ✈ KORD - CYOW

Flight Track Log - Related Links

Times and Time Zones

All times are in EDT time to prevent confusion due to time zone crossing. See the ASQ6092 flight status page for this flight to view local times or setup timezone preferences in your user account.

Time Position Orientation Groundspeed Altitude Reporting Facility
EDT Latitude Longitude Course Direction KTS MPH feet Rate Location/Type
09:53AM 41.9500 -87.9000 132° Southeast 148 170 1,800  Level Chicago TRACON
09:54AM 41.9167 -87.8500 132° Southeast 239 275 3,400 1,260 Climbing Chicago TRACON
09:55AM 41.9261 -87.7056 85° East 291 335 5,000 1,260 Climbing Chicago Center
09:56AM 41.9333 -87.5983 85° East 291 335 6,700 2,160 Climbing Chicago Center
09:57AM 41.9461 -87.4639 83° East 299 344 9,500 2,400 Climbing Chicago Center
09:58AM 41.9553 -87.3411 84° East 325 374 11,700 1,980 Climbing Chicago Center
09:59AM 41.9650 -87.2178 84° East 333 383 13,700 1,440 Climbing Chicago Center
10:00AM 41.9744 -87.0850 84° East 359 413 14,800 1,020 Climbing Chicago Center
10:02AM 41.9850 -86.9419 84° East 383 441 15,900 1,080 Climbing Chicago Center
10:03AM 41.9700 -86.7642 96° East 403 464 17,100 960 Climbing Chicago Center
10:04AM 41.9456 -86.6264 103° East 410 472 18,000 900 Climbing Chicago Center
10:05AM 41.9186 -86.4728 103° East 423 487 19,000 960 Climbing Chicago Center
10:06AM 41.8919 -86.3175 103° East 427 491 20,100 1,200 Climbing Chicago Center
10:07AM 41.8583 -86.1275 103° East 437 503 21,500 1,440 Climbing Chicago Center
10:08AM 41.8303 -85.9736 104° East 426 490 23,100 1,500 Climbing Chicago Center
10:09AM 41.8039 -85.8239 103° East 417 480 24,600 1,440 Climbing Chicago Center
10:10AM 41.7772 -85.6769 104° East 407 468 26,100 1,440 Climbing Chicago Center
10:11AM 41.7325 -85.5439 114° Southeast 391 450 27,600 1,500 Climbing Chicago Center
10:12AM 41.6900 -85.3969 111° Southeast 383 441 29,200 1,320 Climbing Chicago Center
10:13AM 41.6725 -85.2672 100° East 374 430 30,400 1,020 Climbing Chicago Center
10:14AM 41.6528 -85.1258 101° East 382 440 31,400 1,020 Climbing Chicago Center
10:14AM 41.6417 -85.0406 100° East 385 443 32,000 1,020 Climbing Cleveland Center
10:15AM 41.6244 -84.8975 99° East 385 443 33,000 600 Climbing Cleveland Center
10:16AM 41.6147 -84.8089 98° East 399 459 33,000 360 Level Chicago Center
10:17AM 41.6172 -84.6514 89° East 424 488 33,600 780 Climbing Chicago Center
10:17AM 41.6272 -84.5922 77° East 412 474 34,200 960 Climbing Cleveland Center
10:18AM 41.6531 -84.4436 77° East 412 474 35,000 360 Climbing Cleveland Center
10:19AM 41.7075 -84.3078 62° Northeast 397 457 35,000  Level Cleveland Center
10:20AM 41.7708 -84.1583 60° Northeast 402 463 35,000  Level Cleveland Center
10:21AM 41.8292 -84.0222 60° Northeast 409 471 35,000  Level Cleveland Center
10:22AM 41.8892 -83.8914 58° Northeast 415 478 35,000  Level Cleveland Center
10:23AM 41.9450 -83.7603 60° Northeast 410 472 35,000  Level Cleveland Center
10:24AM 42.0053 -83.6208 60° Northeast 416 479 35,000  Level Cleveland Center
10:25AM 42.0606 -83.4947 59° Northeast 416 479 35,000  Level Cleveland Center
10:26AM 42.1225 -83.3519 60° Northeast 421 484 35,000  Level Cleveland Center
10:27AM 42.1819 -83.2117 60° Northeast 421 484 35,000  Level Cleveland Center
10:28AM 42.2414 -83.0739 60° Northeast 421 484 35,000  Level Cleveland Center
10:29AM 42.2986 -82.9383 60° Northeast 421 484 35,000  Level Cleveland Center
10:30AM 42.3553 -82.8058 60° Northeast 415 478 35,000  Level Cleveland Center
10:31AM 42.4119 -82.6700 60° Northeast 410 472 35,000  Level Cleveland Center
10:32AM 42.4708 -82.5339 60° Northeast 410 472 35,000  Level Cleveland Center
10:33AM 42.5294 -82.3919 61° Northeast 415 478 35,000  Level Cleveland Center
10:34AM 42.5878 -82.2556 60° Northeast 415 478 35,000  Level Cleveland Center
10:35AM 42.6417 -82.1214 61° Northeast 410 472 35,000  Level Cleveland Center
10:36AM 42.6997 -81.9844 60° Northeast 410 472 35,000  Level Cleveland Center
10:37AM 42.7575 -81.8414 61° Northeast 415 478 35,000  Level Cleveland Center
10:38AM 42.8153 -81.7011 61° Northeast 420 483 35,000  Level Cleveland Center
10:39AM 42.8708 -81.5633 61° Northeast 415 478 35,000  Level Cleveland Center
10:40AM 42.8833 -81.5000 75° East 420 483 35,000  Level Toronto Center
10:41AM 42.9333 -81.3667 63° Northeast 410 472 35,000  Level Toronto Center
10:42AM 42.9833 -81.2333 63° Northeast 410 472 35,000  Level Toronto Center
10:43AM 43.0333 -81.1000 63° Northeast 410 472 35,000  Level Toronto Center
10:44AM 43.1000 -80.9500 59° Northeast 420 483 35,000  Level Toronto Center
10:45AM 43.1500 -80.8167 63° Northeast 420 483 35,000  Level Toronto Center
10:46AM 43.2333 -80.6667 53° Northeast 430 495 35,000  Level Toronto Center
10:47AM 43.2833 -80.5333 63° Northeast 430 495 35,000  Level Toronto Center
10:48AM 43.3333 -80.3833 65° Northeast 420 483 35,000  Level Toronto Center
10:49AM 43.4000 -80.2500 55° Northeast 420 483 35,000  Level Toronto Center
10:50AM 43.4500 -80.1167 63° Northeast 410 472 35,000  Level Toronto Center
10:51AM 43.5000 -79.9833 63° Northeast 420 483 35,000  Level Toronto Center
10:52AM 43.5667 -79.8167 61° Northeast 420 483 35,000  Level Toronto Center
10:53AM 43.6167 -79.7000 59° Northeast 420 483 35,000  Level Toronto Center
10:54AM 43.6667 -79.5333 67° East 420 483 35,000  Level Toronto Center
10:55AM 43.7167 -79.4000 63° Northeast 420 483 35,000  Level Toronto Center
10:56AM 43.7833 -79.2333 61° Northeast 420 483 35,000  Level Toronto Center
10:57AM 43.8333 -79.1167 59° Northeast 420 483 35,000  Level Toronto Center
10:58AM 43.8833 -78.9667 65° Northeast 420 483 35,000  Level Toronto Center
10:59AM 43.9500 -78.8167 58° Northeast 430 495 35,000  Level Toronto Center
11:00AM 44.0000 -78.6667 65° Northeast 440 506 35,000  Level Toronto Center
11:01AM 44.0667 -78.5167 58° Northeast 440 506 35,000  Level Toronto Center
11:02AM 44.1000 -78.3833 71° East 440 506 35,000 -360 Level Toronto Center
11:03AM 44.1667 -78.2167 61° Northeast 440 506 34,300 -660 Descending Toronto Center
11:04AM 44.2167 -78.0667 65° Northeast 440 506 33,700 -600 Descending Toronto Center
11:05AM 44.2833 -77.9167 58° Northeast 430 495 33,100 -600 Descending Toronto Center
11:06AM 44.3333 -77.7667 65° Northeast 430 495 32,500 -660 Descending Toronto Center
11:07AM 44.4000 -77.6000 61° Northeast 450 518 31,800 -1,200 Descending Toronto Center
11:08AM 44.4500 -77.4667 62° Northeast 450 518 30,200 -2,100 Descending Toronto Center
11:09AM 44.5000 -77.3167 65° Northeast 440 506 27,600 -2,700 Descending Toronto Center
11:09AM 44.5333 -77.2667 47° Northeast 440 506 26,200 -2,760 Descending Montreal Center
11:11AM 44.6500 -76.9500 63° Northeast 450 518 20,800 -2,220 Descending Montreal Center
11:12AM 44.7167 -76.8167 55° Northeast 420 483 19,600 -1,200 Descending Montreal Center
11:13AM 44.7833 -76.6833 55° Northeast 420 483 18,500 -1,200 Descending Montreal Center
11:14AM 44.8000 -76.5833 77° East 420 483 17,800 -2,400 Descending Toronto Center
11:15AM 44.8833 -76.4500 49° Northeast 410 472 14,900 -2,280 Descending Toronto Center
11:16AM 44.9333 -76.3333 59° Northeast 370 426 13,300 -1,500 Descending Toronto Center
11:16AM 44.9667 -76.3167 19° North 370 426 12,700 -1,380 Descending Montreal Center
11:17AM 45.0333 -76.2000 51° Northeast 320 368 11,300 -1,500 Descending Montreal Center
11:18AM 45.0667 -76.1167 60° Northeast 290 334 9,800 -1,560 Descending Montreal Center
11:19AM 45.1167 -76.0167 55° Northeast 270 311 8,200 -900 Descending Montreal Center
11:20AM 45.1667 -75.9500 43° Northeast 280 322 8,000 -180 Descending Montreal Center
11:21AM 45.1833 -75.8500 77° East 240 276 7,900 -840 Descending Montreal Center
11:22AM 45.1667 -75.7500 103° East 240 276 6,400 -1,140 Descending Montreal Center
11:23AM 45.2000 -75.6667 60° Northeast 230 265 5,700 -1,140 Descending Montreal Center
11:24AM 45.2333 -75.5833 60° Northeast 240 276 4,200 -900 Descending Montreal Center
11:25AM 45.2833 -75.5167 43° Northeast 220 253 3,900 -600 Descending Montreal Center
11:26AM 45.3000 -75.4500 70° East 220 253 3,100 -420 Descending Montreal Center
11:27AM 45.3500 -75.3667 49° Northeast 220 253 3,100 -60 Level Montreal Center
11:28AM 45.4000 -75.4000 335° Northwest 210 242 3,000  Descending Montreal Center
11:29AM 45.3833 -75.4667 250° West 190 219 3,100 -300 Climbing Montreal Center
11:30AM 45.3667 -75.5167 245° Southwest 160 184 2,400 -660 Descending Montreal Center
11:31AM 45.3500 -75.5667 245° Southwest 130 150 1,800 -660 Descending Montreal Center
11:32AM 45.3167 -75.6167 227° Southwest 130 150 1,100 -660 Descending Montreal Center
11:33AM 45.3000 -75.6667 245° Southwest 130 150 500 -600 Descending Montreal Center